Tiempo atmosférico en la estación meteorológica de Alicante/Alacant Aeropuerto, Alacant/Alicante (43 m.)



Fecha
DESCASC
Temp. máxima en grados centígrados (hora)
DESCASC
Temp. mínima en grados centígrados (hora)
DESCASC
Temp. media en grados centígrados
DESCASC
Racha de viento máxima en m/sg (hora)
DESCASC
Velocidad máxima media en intervalos de 10 minutos(hora)
DESCASC
Precipitaciones diarias en mm
DESCASC
Precipitaciones de 00:00 a 06:00 en mm
DESCASC
Precipitaciones de 06:00 a 12:00 en mm
DESCASC
Precipitaciones de 12:00 a 18:00 en mm
DESCASC
Precipitaciones de 18:00 a 24:00 en mm
DESCASC

Gráficas

Temp. máximas Temp. mínimas Temp. medias Precipitaciones Rachas de viento máximas Velocidades máximas media en intervalos de 10 minutos

Datos horarios

Fecha y hora oficial Temperatura (ºC) Velocidad del viento (km/h) Dirección del viento Racha (km/h) Dirección de racha Precipitación (mm) Presión (hPa) Tendencia (hPa) Humedad (%)
2020-08-05 23:00:00 25.2 11 Este 15 Este 0 1010.7 1.5 81
2020-08-05 22:00:00 25.4 9 Este 15 Este 0 1010.2 1.1 80
2020-08-05 21:00:00 26.2 9 Este 18 Este 0 1009.6 0.6 77
2020-08-05 20:00:00 27.1 12 Este 26 Norte 0 1009.2 0 72
2020-08-05 19:00:00 28.1 16 Este 32 Este 0 1009.1 -0.3 67
2020-08-05 18:00:00 29.2 15 Este 26 Este 0 1009 -- 59
2020-08-05 17:00:00 29.7 18 Este 30 Sudeste 0 1009.2 -- 57
2020-08-05 16:00:00 29.6 16 Este 28 Sudeste 0 1009.4 -- 59
2020-08-05 15:00:00 29.5 15 Este 28 Sudeste 0 1009.7 -- 61
2020-08-05 14:00:00 29.3 14 Este 26 Este 0 1010.1 -- 63
2020-08-05 13:00:00 29 15 Este 26 Este 0 1010.6 -- 63
2020-08-05 12:00:00 28.4 14 Este 22 Este 0 1010.9 -- 66
2020-08-05 11:00:00 28 10 Este 21 Este 0 1011 -- 66
2020-08-05 10:00:00 26.6 6 Nordeste 18 Norte 0 1010.9 -- 72
2020-08-05 09:00:00 25.7 8 Norte 13 Norte 0 1010.8 -- 78
2020-08-05 08:00:00 23.4 7 Noroeste 9 Noroeste 0 1010.5 -- 88
2020-08-05 07:00:00 22.6 6 Oeste 11 Noroeste 0 1009.8 -- 92
2020-08-05 06:00:00 23.2 -- -- -- -- 0 1009.7 -- 88
2020-08-05 05:00:00 22.9 5 Oeste 8 Oeste 0 1009.6 -- 93
2020-08-05 04:00:00 23.7 4 Norte 9 Norte 0 1009.7 -- 89
2020-08-05 03:00:00 24.1 8 Norte 9 Norte 0 1010.1 -- 89
2020-08-05 02:00:00 24.4 4 Este 9 Este 0 1010.5 -- 86
2020-08-05 01:00:00 24.2 6 Este 13 Este 0 1010.6 -- 86
2020-08-05 00:00:00 24.7 11 Este 15 Norte 0 1010.5 -- 86
2020-08-04 23:00:00 25.1 4 Sudeste 8 Sudeste 0 1010.6 -- 85
2020-08-04 22:00:00 25.2 4 Sudeste 11 Sudeste 0 1010.1 -- 83
2020-08-04 21:00:00 26.1 7 Sudeste 15 Este 0 1009.6 -- 79
2020-08-04 20:00:00 27.2 10 Sudeste 21 Sudeste 0 1009.3 -- 72
2020-08-04 19:00:00 27.5 11 Este 22 Este 0 1009.1 -- 72
2020-08-04 18:00:00 27.7 14 Este 26 Este 0 1009.4 -- 69
2020-08-04 17:00:00 28.2 18 Este 28 Norte 0 1009.7 -- 66
2020-08-04 16:00:00 28.4 18 Este 32 Este 0 1009.9 -- 67
2020-08-04 15:00:00 29.7 18 Sudeste 30 Sudeste 0 1010.2 -- 61
2020-08-04 14:00:00 29.2 10 Sudeste 22 Sudeste 0 1010.5 -- 63
2020-08-04 13:00:00 27.4 13 Sudeste 24 Sudeste 1.2 1011 -- 77
2020-08-04 12:00:00 25.9 9 Sudeste 24 Sudeste 0.2 1011.1 -- 87
2020-08-04 11:00:00 25.2 14 Sudeste 30 Sudeste 7.3 1011.1 -- 90
2020-08-04 10:00:00 27.1 19 Sudeste 30 Sudeste 0 1010.9 -- 76
2020-08-04 09:00:00 26.6 12 Este 22 Este 0 1010.6 -- 79
2020-08-04 08:00:00 25.4 5 Este -- -- 0 1010.3 -- 85
2020-08-04 07:00:00 24.5 0 Calma 5 Este 0 1010 -- 88
2020-08-04 06:00:00 24.7 2 Este 9 Este 0 1009.8 -- 87
2020-08-04 05:00:00 24.8 8 Este 13 Este 0 1009.7 -- 87
2020-08-04 04:00:00 25.8 9 Este 13 Este 0 1009.9 -- 84
2020-08-04 03:00:00 25.8 5 Este 15 Este 0 1010.2 -- 85
2020-08-04 02:00:00 26.4 10 Este 13 Este 0 1010.3 -- 83
2020-08-04 01:00:00 26.6 6 Este 13 Este 0 1010.4 -- 80
2020-08-04 00:00:00 26.6 6 Este 9 Este 0 1010.1 -- 81
2020-08-03 23:00:00 26.6 7 Sudeste 15 Este 0 1009.7 -- 79
2020-08-03 22:00:00 26.7 9 Este 17 Este 0 1009 -- 79
2020-08-03 21:00:00 26.8 11 Este 21 Este 0 1008.5 -- 79
2020-08-03 20:00:00 26.9 14 Este 28 Este 0 1008.2 -- 81
2020-08-03 19:00:00 28.4 20 Este 33 Este 0 1007.8 -- 73
2020-08-03 18:00:00 28.3 21 Este 35 Este 0 1008 -- 73
2020-08-03 17:00:00 29 26 Este 35 Este 0 1007.9 -- 70
2020-08-03 16:00:00 29.1 28 Este 41 Este 0 1007.9 -- 70
2020-08-03 15:00:00 30.2 24 Este 35 Este 0 1008.4 -- 65
2020-08-03 14:00:00 30 20 Este 33 Este 0 1008.6 -- 65
2020-08-03 13:00:00 29.6 13 Este 28 Este 0 1008.8 -- 69
2020-08-03 12:00:00 28.7 15 Este 26 Este 0 1009 -- 74
2020-08-03 11:00:00 27.9 22 Este 30 Este 0 1008.8 -- 78
2020-08-03 10:00:00 27.2 15 Este 22 Este 0 1008.1 -- 80
2020-08-03 09:00:00 27 8 Nordeste 15 Nordeste 0 1008.1 -- 83
2020-08-03 08:00:00 26.2 9 Norte 13 Norte 0 1008.7 -- 89
2020-08-03 07:00:00 25.8 10 Este 15 Este 0 1008.2 -- 90
2020-08-03 06:00:00 25.2 5 Nordeste 11 Norte 0 1007.5 -- 92
2020-08-03 05:00:00 25.7 7 Norte 11 Norte 0 1007.6 -- 91
2020-08-03 04:00:00 25.7 7 Nordeste 17 Este 0 1007.7 -- 91
2020-08-03 03:00:00 26 11 Este 17 Este 0 1008.2 -- 89
2020-08-03 02:00:00 26.4 7 Este 11 Sudeste 0 1009 -- 88
2020-08-03 01:00:00 26.2 8 Este 15 Este 0 1008.9 -- 90
2020-08-03 00:00:00 26.4 10 Este 17 Este 0 1009 -- 89
2020-08-02 23:00:00 26.6 11 Nordeste 18 Este 0 1008.8 -- 89
2020-08-02 22:00:00 26.9 14 Este 18 Este 0 1008.3 -- 85
2020-08-02 21:00:00 27.6 10 Nordeste 17 Nordeste 0 1008.3 -- 78
2020-08-02 20:00:00 29 11 Nordeste 22 Este 0 1008.4 -- 71
2020-08-02 19:00:00 29.5 10 Nordeste 21 Este 0 1008.8 -- 71
2020-08-02 18:00:00 30.2 11 Este 26 Sudeste 0 1009.3 -- 69
2020-08-02 17:00:00 30.3 17 Este 35 Este 0 1009.8 -- 71
2020-08-02 16:00:00 30.7 24 Este 37 Este 0 1010.2 -- 65
2020-08-02 15:00:00 31 24 Este 35 Este 0 1010.4 -- 68
2020-08-02 14:00:00 32.1 23 Este 32 Este 0 1010.3 -- 62
2020-08-02 13:00:00 32.8 16 Este 24 Este 0 1010.2 -- 57
2020-08-02 12:00:00 32.3 9 Sur 17 Sudoeste 0 1010.5 -- 62
2020-08-02 11:00:00 30.5 8 Sudoeste 17 Sur 0 1010.4 -- 67
2020-08-02 10:00:00 28.7 8 Sur 15 Sudeste 0 1010.3 -- 80
2020-08-02 09:00:00 27.3 6 Nordeste 17 Nordeste 0 1010.1 -- 87
2020-08-02 08:00:00 25.4 9 Nordeste 17 Norte 0 1009.9 -- 98
2020-08-02 07:00:00 25.1 13 Nordeste 17 Nordeste 0 1009.5 -- 99
2020-08-02 06:00:00 25.1 9 Norte 15 Norte 0 1008.7 -- 98
2020-08-02 05:00:00 25.1 8 Nordeste 17 Norte 0 1008.5 -- 96
2020-08-02 04:00:00 25.6 8 Norte 15 Norte 0 1008.7 -- 89
2020-08-02 03:00:00 25.7 5 Norte 9 Norte 0 1008.9 -- 89
2020-08-02 02:00:00 25.9 9 Oeste 11 Oeste 0 1009.2 -- 89
2020-08-02 01:00:00 26.9 7 Oeste 9 Oeste 0 1009.5 -- 84
2020-08-02 00:00:00 27.4 9 Sudoeste 11 Oeste 0 1009.4 -- 84
2020-08-01 23:00:00 27.9 6 Oeste 11 Sudoeste 0 1009.6 -- 85
2020-08-01 22:00:00 29.3 3 Oeste 18 Este 0 1009 -- 77
2020-08-01 21:00:00 31 10 Nordeste 21 Nordeste 0 1008.4 -- 71
2020-08-01 20:00:00 31.9 12 Nordeste 24 Nordeste 0 1008.9 -- 66
2020-08-01 19:00:00 32.9 9 Norte 21 Sur 0 1009.6 -- 52
2020-08-01 18:00:00 31.7 14 Sur 26 Sudoeste 0 1010.2 -- 61
2020-08-01 17:00:00 31.8 12 Sur 18 Sur 0 1010.2 -- 68
2020-08-01 16:00:00 33.3 12 Sudeste 22 Norte 0 1010.5 -- 64
2020-08-01 15:00:00 33.6 11 Este 22 Sudeste 0 1010.8 -- 60
2020-08-01 14:00:00 32.4 13 Este 22 Este 0 1011.3 -- 65
2020-08-01 13:00:00 30.6 10 Sudeste 22 Este 0 1012 -- 72
2020-08-01 12:00:00 28.7 17 Nordeste 26 Este 0 1012 -- 81
2020-08-01 11:00:00 29.6 10 Este 21 Este 0 1011.6 -- 72
2020-08-01 10:00:00 29.1 8 Este 13 Nordeste 0 1011.4 -- 65
2020-08-01 09:00:00 27 5 Nordeste 11 Este 0 1011.5 -- 75
2020-08-01 08:00:00 24.3 7 Nordeste 15 Norte 0 1011.3 -- 87
2020-08-01 07:00:00 23.5 5 Oeste 9 Noroeste 0 1011.2 -- 92
2020-08-01 06:00:00 23.5 6 Oeste -- -- 0 1010.8 -- 94
2020-08-01 05:00:00 24 4 Sudoeste 5 Sudoeste 0 1010.8 -- 95
2020-08-01 04:00:00 24.1 3 Sudoeste 11 Sudoeste 0 1010.8 -- 94
2020-08-01 03:00:00 24.6 9 Oeste 11 Oeste 0 1011.3 -- 94
2020-08-01 02:00:00 25.2 0 Calma 4 Oeste 0 1011.6 -- 93
2020-08-01 01:00:00 25.9 4 Oeste 8 Oeste 0 1011.8 -- 92
2020-08-01 00:00:00 26.2 5 Oeste 8 Sudoeste 0 1011.6 -- 89
2020-07-31 23:00:00 26.6 5 Sur 11 Nordeste 0 1011.4 -- 88
2020-07-31 22:00:00 27.3 6 Nordeste 9 Nordeste 0 1010.7 -- 84
2020-07-31 21:00:00 28.8 7 Este 13 Este 0 1010.5 -- 72
2020-07-31 20:00:00 30.2 6 Este 13 Este 0 1010.5 -- 62
2020-07-31 19:00:00 29.9 7 Sudeste 21 Este 0 1010.4 -- 70
2020-07-31 18:00:00 30.3 13 Este 24 Este 0 1010.6 -- 68
2020-07-31 17:00:00 30.7 15 Este 28 Este 0 1010.8 -- 64
2020-07-31 16:00:00 31.6 15 Este 26 Este 0 1011.1 -- 62
2020-07-31 15:00:00 31.8 15 Este 26 Este 0 1011.3 -- 57
2020-07-31 14:00:00 32.4 15 Este 28 Este 0 1011.4 -- 51
2020-07-31 13:00:00 32.5 17 Este 24 Este 0 1011.7 -- 52
2020-07-31 12:00:00 32.2 10 Este 17 Este 0 1011.9 -- 54
2020-07-31 11:00:00 31.2 11 Este 18 Este 0 1011.6 -- 55
2020-07-31 10:00:00 30.1 7 Nordeste 15 Nordeste 0 1011.3 -- 51
2020-07-31 09:00:00 28.4 3 Oeste 8 Noroeste 0 1011 -- 56
2020-07-31 08:00:00 25 5 Oeste 11 Oeste 0 1010.7 -- 66
2020-07-31 07:00:00 23 9 Oeste 11 Oeste 0 1010.4 -- 76
2020-07-31 06:00:00 23.6 5 Sur 9 Sudoeste 0 1010.3 -- 74
2020-07-31 05:00:00 25.3 10 Sudoeste 17 Sudoeste 0 1010.1 -- 68
2020-07-31 04:00:00 25.7 13 Sudoeste 18 Sudoeste 0 1010.7 -- 67
2020-07-31 03:00:00 24.7 13 Sudoeste 17 Oeste 0 1010.6 -- 74
2020-07-31 02:00:00 24.6 10 Sudoeste 15 Oeste 0 1011.2 -- 72
2020-07-31 01:00:00 26.8 8 Sudoeste 13 Oeste 0 1011.3 -- 64
2020-07-31 00:00:00 26.1 7 Noroeste 13 Este 0 1011.3 -- 68
2020-07-30 23:00:00 27.5 12 Nordeste 17 Este 0 1010.7 -- 64
2020-07-30 22:00:00 28.1 8 Este 17 Este 0 1010.7 -- 60
2020-07-30 21:00:00 28.6 8 Sudeste 11 Sudeste 0 1010.7 -- 61
2020-07-30 20:00:00 28.8 6 Este 22 Este 0 1010.7 -- 61
2020-07-30 19:00:00 30.8 17 Este 30 Este 0 1010.2 -- 53
2020-07-30 18:00:00 30.9 18 Este 33 Este 0 1010.2 -- 54
2020-07-30 17:00:00 31.4 21 Este 35 Este 0 1010.5 -- 51
2020-07-30 16:00:00 31.9 25 Este 35 Este 0 1010.8 -- 49
2020-07-30 15:00:00 31.6 22 Este 35 Este 0 1011.3 -- 52
2020-07-30 14:00:00 32.7 23 Nordeste 32 Este 0 1011.4 -- 45
2020-07-30 13:00:00 31.9 14 Este 24 Este 0 1012.1 -- 46
2020-07-30 12:00:00 31.8 13 Este 24 Este 0 1012.2 -- 44
2020-07-30 11:00:00 30.7 6 Sur 13 Sur 0 1012.2 -- 49
2020-07-30 10:00:00 29.6 3 Sur 9 Nordeste 0 1012 -- 51
2020-07-30 09:00:00 27 5 Noroeste 13 Oeste 0 1011.3 -- 59
2020-07-30 08:00:00 24.3 5 Sudoeste 13 Sudoeste 0 1010.8 -- 70
2020-07-30 07:00:00 23.2 3 Norte 9 Noroeste 0 1010.3 -- 79
2020-07-30 06:00:00 22.8 4 Norte 8 Norte 0 1010.1 -- 84
2020-07-30 05:00:00 23.9 4 Sur 18 Oeste 0 1009.5 -- 76
2020-07-30 04:00:00 25.2 13 Oeste 18 Oeste 0 1010.2 -- 76
2020-07-30 03:00:00 24.3 9 Oeste 17 Oeste 0 1010.9 -- 81
2020-07-30 02:00:00 25.1 13 Oeste 21 Sudoeste 0 1011.2 -- 80
2020-07-30 01:00:00 25.4 6 Norte 37 Este 0 1010.7 -- 77
2020-07-30 00:00:00 26.7 25 Este 33 Este 0 1010.3 -- 72
2020-07-29 23:00:00 27 5 Sur 17 Este 0 1011.6 -- 72
2020-07-29 22:00:00 26.9 9 Este 24 Este 0 1010.7 -- 79
2020-07-29 21:00:00 27.4 13 Este 28 Este 0 1009.9 -- 80
2020-07-29 20:00:00 28.7 18 Este 37 Este 0 1009.2 -- 74
2020-07-29 19:00:00 31.2 32 Nordeste 42 Este 0 1009 -- 58
2020-07-29 18:00:00 31.9 25 Este 42 Este 0 1009.2 -- 55
2020-07-29 17:00:00 32.8 24 Nordeste 37 Este 0 1009.6 -- 51
2020-07-29 16:00:00 33.1 23 Este 33 Este 0 1010.1 -- 48
2020-07-29 15:00:00 31.8 15 Nordeste 28 Este 0 1010.7 -- 56
2020-07-29 14:00:00 32.6 18 Este 30 Sudeste 0 1011.2 -- 50
2020-07-29 13:00:00 33.7 14 Este 24 Este 0 1011.4 -- 40
2020-07-29 12:00:00 32.1 5 Oeste 18 Oeste 0 1011.5 -- 49
2020-07-29 11:00:00 29.8 12 Sudoeste 24 Oeste 0 1011.5 -- 63
2020-07-29 10:00:00 27.9 14 Sudoeste 22 Sudoeste 0 1011.1 -- 71
2020-07-29 09:00:00 26.4 9 Sudoeste 13 Sudoeste 0 1010.6 -- 72
2020-07-29 08:00:00 23.8 4 Oeste 11 Sudoeste 0 1010.2 -- 89
2020-07-29 07:00:00 22.5 9 Oeste 13 Oeste 0 1009.6 -- 85
2020-07-29 06:00:00 23.4 9 Sudoeste 11 Sur 0 1008.8 -- 81
2020-07-29 05:00:00 23.7 10 Noroeste 13 Oeste 0 1008.3 -- 87
2020-07-29 04:00:00 24.4 8 Oeste 13 Oeste 0 1008.9 -- 91
2020-07-29 03:00:00 25.4 5 Norte 13 Nordeste 0 1009.5 -- 91
2020-07-29 02:00:00 25.7 0 Calma 5 Sudoeste 0 1010.2 -- 90
2020-07-29 01:00:00 25.6 0 Calma 9 Este 0 1010.4 -- 91
2020-07-29 00:00:00 25.6 6 Este 15 Nordeste 0 1010.2 -- 92
2020-07-28 23:00:00 25.9 12 Este 18 Este 0 1010.2 -- 90
2020-07-28 22:00:00 26.2 13 Este 22 Nordeste 0 1009.7 -- 87
2020-07-28 21:00:00 27 15 Nordeste 22 Nordeste 0 1009.3 -- 83
2020-07-28 20:00:00 27.8 18 Este 32 Este 0 1009 -- 78
2020-07-28 19:00:00 29 25 Este 37 Este 0 1009 -- 70
2020-07-28 18:00:00 30.1 23 Este 35 Este 0 1009.5 -- 64
2020-07-28 17:00:00 30.3 23 Este 35 Este 0 1009.6 -- 60
2020-07-28 16:00:00 30.7 20 Este 28 Este 0 1009.9 -- 57
2020-07-28 15:00:00 31.6 20 Este 30 Este 0 1010.5 -- 54
2020-07-28 14:00:00 31.5 17 Este 28 Este 0 1011 -- 52
2020-07-28 13:00:00 30.9 19 Este 30 Este 0 1011 -- 55
2020-07-28 12:00:00 30.3 17 Este 30 Este 0 1011.2 -- 58
2020-07-28 11:00:00 30.7 13 Este 22 Este 0 1010.6 -- 54
2020-07-28 10:00:00 29.5 6 Sur 13 Sudeste 0 1010.5 -- 56
2020-07-28 09:00:00 27.4 6 Sudoeste 11 Oeste 0 1010.2 -- 57
2020-07-28 08:00:00 24.5 10 Oeste 13 Oeste 0 1010.1 -- 47
2020-07-28 07:00:00 23.2 6 Sudoeste 13 Nordeste 0 1009.5 -- 48
2020-07-28 06:00:00 27.6 9 Este 17 Este 0 1008.9 -- 34
2020-07-28 05:00:00 27.7 10 Noroeste 15 Noroeste 0 1009.4 -- 34
2020-07-28 04:00:00 27.1 4 Noroeste 13 Norte 0 1009.8 -- 35
2020-07-28 03:00:00 26.6 6 Noroeste 15 Noroeste 0 1010.6 -- 37
2020-07-28 02:00:00 26.1 8 Oeste 11 Oeste 0 1011.4 -- 42
2020-07-28 01:00:00 25 8 Noroeste 11 Noroeste 0 1011.7 -- 51
2020-07-28 00:00:00 25.2 6 Sudeste 9 Este 0 1012.1 -- 71
2020-07-27 23:00:00 26.3 2 Este 11 Este 0 1012.1 -- 73
2020-07-27 22:00:00 27.2 9 Este 21 Este 0 1011.5 -- 68
2020-07-27 21:00:00 28.4 12 Este 17 Este 0 1011.1 -- 58
2020-07-27 20:00:00 28.6 8 Nordeste 21 Este 0 1011.4 -- 62
2020-07-27 19:00:00 28.9 14 Este 30 Este 0 1011.1 -- 55
2020-07-27 18:00:00 32.8 19 Este 30 Este 0 1011.4 -- 31
2020-07-27 17:00:00 32.8 19 Este 32 Este 0 1011.8 -- 34
2020-07-27 16:00:00 31.5 20 Este 32 Este 0 1012.4 -- 41
2020-07-27 15:00:00 32.5 20 Este 30 Este 0 1012.7 -- 38
2020-07-27 14:00:00 30.8 21 Este 32 Este 0 1013 -- 56
2020-07-27 13:00:00 32.9 14 Este 24 Este 0 1013.5 -- 35
2020-07-27 12:00:00 32.4 10 Este 22 Este 0 1013.5 -- 36
2020-07-27 09:00:00 28.7 0 Calma 9 Oeste 0 1012.4 0.4 42
2020-07-27 08:00:00 25 7 Norte 17 Nordeste 0 1011.7 -0.1 56
2020-07-27 07:00:00 24 9 Norte 15 Norte 0 1011.6 -0.5 62
2020-07-27 06:00:00 22.8 10 Noroeste 13 Noroeste 0 1012 -0.5 69
2020-07-27 05:00:00 23.6 5 Norte 11 Noroeste 0 1011.8 -1.1 68
2020-07-27 04:00:00 23.1 7 Noroeste 9 Oeste 0 1012.1 -1 75
2020-07-27 03:00:00 23.7 5 Noroeste 9 Norte 0 1012.5 -0.1 76
2020-07-27 02:00:00 25.1 7 Norte 13 Norte 0 1012.9 0.6 72
2020-07-27 01:00:00 24.5 8 Norte 13 Norte 0 1013.1 1.7 80
2020-07-27 00:00:00 25.2 8 Norte 21 Nordeste 0 1012.6 1.9 83
2020-07-26 23:00:00 25.5 14 Nordeste 24 Este 0 1012.3 1.9 84
2020-07-26 22:00:00 25.8 17 Nordeste 26 Este 0 1011.4 1.1 85
2020-07-26 21:00:00 26.4 18 Nordeste 30 Este 0 1010.7 0.2 84
2020-07-26 20:00:00 27.2 22 Este 32 Este 0 1010.4 -0.5 82
2020-07-26 19:00:00 28.3 23 Nordeste 37 Este 0 1010.3 -1 75
2020-07-26 18:00:00 29.1 24 Este 33 Este 0 1010.5 -1.2 71
2020-07-26 17:00:00 29.5 24 Nordeste 33 Este 0 1010.9 -0.8 68
2020-07-26 16:00:00 30 22 Nordeste 33 Este 0 1011.3 -0.7 65
2020-07-26 15:00:00 29.8 23 Este 35 Este 0 1011.7 -0.3 65
2020-07-26 14:00:00 30.3 21 Este 30 Este 0 1011.7 0.2 63
2020-07-26 13:00:00 29.4 19 Este 32 Nordeste 0 1012 0.6 68
2020-07-26 12:00:00 28.8 19 Este 28 Este 0 1012 0.9 70
2020-07-26 11:00:00 27.9 17 Este 26 Este 0 1011.5 1.2 74
2020-07-26 10:00:00 27.3 17 Este 24 Este 0 1011.4 -- 73
2020-07-26 09:00:00 25.3 9 Nordeste 13 Este 0 1011.1 -- 67
2020-07-26 08:00:00 22.8 4 Oeste 13 Noroeste 0 1010.3 -- 72
2020-07-26 07:00:00 21.3 11 Noroeste 15 Noroeste 0 1010.2 -- 82
2020-07-26 06:00:00 21.7 10 Noroeste 13 Noroeste 0 1009.9 -- 84
2020-07-26 05:00:00 22 9 Noroeste 11 Noroeste 0 1009.8 -- 89
2020-07-26 04:00:00 22.7 7 Norte 13 Norte 0 1009.8 -- 89
2020-07-26 03:00:00 23.4 8 Norte 13 Norte 0 1009.8 -- 88
2020-07-26 02:00:00 23.2 6 Norte 9 Norte 0 1010.2 -- 88
2020-07-26 01:00:00 24.6 5 Norte 13 Nordeste 0 1010.3 -- 85
2020-07-26 00:00:00 24.5 7 Nordeste 17 Este 0 1010.4 -- 87
2020-07-25 23:00:00 25.1 11 Este 18 Este 0 1010.5 -- 84
2020-07-25 22:00:00 25.6 12 Nordeste 18 Este 0 1009.9 -- 80
2020-07-25 21:00:00 26.5 13 Este 21 Este 0 1009.3 -- 69
2020-07-25 20:00:00 27.7 15 Este 22 Este 0 1009.2 -- 63
2020-07-25 19:00:00 29.2 14 Nordeste 24 Este 0 1009.3 -- 51
2020-07-25 18:00:00 30.1 16 Este 26 Este 0 1009.8 -- 41
2020-07-25 17:00:00 30.6 17 Este 26 Este 0 1010.2 -- 39
2020-07-25 16:00:00 31.2 15 Este 28 Este 0 1010.8 -- 38
2020-07-25 15:00:00 31.4 14 Este 26 Este 0 1011.3 -- 34
2020-07-25 14:00:00 31 17 Este 32 Este 0 1011.7 -- 37
2020-07-25 13:00:00 29.7 17 Este 28 Este 0 1012 -- 49
2020-07-25 12:00:00 29.2 16 Este 24 Norte 0 1012.2 -- 52
2020-07-25 11:00:00 29.5 15 Este 21 Este 0 1011.9 -- 44
2020-07-25 10:00:00 28.7 9 Este 15 Este 0 1011.8 -- 45
2020-07-25 09:00:00 26.9 11 Norte 18 Nordeste 0 1011.5 -- 57
2020-07-25 08:00:00 23.3 6 Norte 13 Norte 0 1011 -- 81
2020-07-25 07:00:00 23.1 5 Noroeste 11 Norte 0 1010.7 -- 83
2020-07-25 06:00:00 23.4 6 Norte 9 Norte 0 1010.4 -- 85
2020-07-25 05:00:00 23.5 7 Norte 13 Norte 0 1010.3 -- 85
2020-07-25 04:00:00 24 9 Norte 11 Norte 0 1010.5 -- 82
2020-07-25 03:00:00 23.3 5 Norte 8 Norte 0 1010.8 -- 85
2020-07-25 02:00:00 23.6 4 Norte -- -- 0 1011 -- 84
2020-07-25 01:00:00 24 0 Calma 5 Este 0 1011.1 -- 86
2020-07-25 00:00:00 24.2 4 Sudeste 5 Sur 0 1011 -- 82
2020-07-24 23:00:00 24.7 4 Sur 8 Sudeste 0 1010.7 -- 80
2020-07-24 22:00:00 25.2 6 Sudeste 11 Sudeste 0 1010 -- 74
2020-07-24 21:00:00 26.8 7 Este 13 Este 0 1009.7 -- 66
2020-07-24 20:00:00 27.6 9 Este 18 Este 0 1009.9 -- 64
2020-07-24 19:00:00 28.1 13 Este 24 Este 0 1010 -- 66
2020-07-24 18:00:00 29.1 16 Este 26 Este 0 1010 -- 58
2020-07-24 17:00:00 29.1 15 Este 26 Este 0 1010.3 -- 54
2020-07-24 16:00:00 30.3 16 Este 30 Este 0 1010.3 -- 53
2020-07-24 15:00:00 30.5 18 Este 28 Este 0 1010.6 -- 58
2020-07-24 14:00:00 30.6 15 Este 28 Este 0 1010.8 -- 56
2020-07-24 13:00:00 31 17 Sudeste 26 Sudeste 0 1010.9 -- 49
2020-07-24 12:00:00 30.8 9 Sur 17 Sur 0 -- -- 43
2020-07-24 11:00:00 29.6 5 Sur 13 Sudoeste 0 1010.4 -- 49
2020-07-24 10:00:00 27.6 4 Sur 13 Sudeste 0 1010.5 -- 68
2020-07-24 09:00:00 25.5 0 Calma 9 Norte 0 1010.3 -- 85
2020-07-24 08:00:00 23 6 Noroeste -- -- 0 1010 -- 74
2020-07-24 07:00:00 21.2 9 Oeste 13 Oeste 0 1009.6 -- 68
2020-07-24 06:00:00 20.9 9 Oeste 11 Oeste 0 1009.3 -- 75
2020-07-24 05:00:00 21.1 5 Sudoeste 8 Sudoeste 0 1009.4 -- 75
2020-07-24 04:00:00 21.8 4 Oeste 8 Oeste 0 1009.6 -- 75
2020-07-24 03:00:00 22.1 7 Oeste -- -- 0 1010 -- 76
2020-07-24 02:00:00 22.6 5 Oeste -- -- 0 1010.7 -- 80
2020-07-24 01:00:00 23.2 5 Oeste 8 Oeste 0 1011.2 -- 81
2020-07-24 00:00:00 24.1 6 Oeste 9 Oeste 0 1011.3 -- 79
2020-07-23 23:00:00 24.6 5 Sudoeste 8 Sudoeste 0 1011.4 -- 78
2020-07-23 22:00:00 25.4 0 Calma 11 Sudeste 0 1010.9 -- 75
2020-07-23 21:00:00 27 7 Sudeste 17 Sudeste 0 1010.7 -- 67
2020-07-23 20:00:00 28.2 11 Este 18 Este 0 1010.7 -- 63
2020-07-23 19:00:00 29.5 14 Este 22 Sudeste 0 1010.4 -- 49
2020-07-23 18:00:00 30.4 14 Este 22 Sudeste 0 1010.7 -- 45
2020-07-23 17:00:00 31.2 16 Este 26 Este 0 1010.9 -- 36
2020-07-23 16:00:00 32.2 14 Sudeste 24 Este 0 1011.4 -- 32
2020-07-23 15:00:00 32 15 Este 24 Este 0 1011.6 -- 26
2020-07-23 14:00:00 31.6 13 Este 22 Este 0 1012.3 -- 33
2020-07-23 13:00:00 30.9 14 Este 24 Sudeste 0 1012.6 -- 38
2020-07-23 12:00:00 31 13 Este 22 Este 0 1012.8 -- 38
2020-07-23 11:00:00 29.6 6 Sur 15 Sur 0 1012.6 -- 39
2020-07-23 10:00:00 27.9 10 Oeste 17 Oeste 0 1012.6 -- 44
2020-07-23 09:00:00 26 4 Sudoeste 11 Oeste 0 1012.4 -- 50
2020-07-23 08:00:00 22 9 Oeste 15 Oeste 0 1012.2 -- 62
2020-07-23 07:00:00 20.3 9 Oeste 11 Oeste 0 1012 -- 70
2020-07-23 06:00:00 21.5 6 Este 13 Este 0 1011.7 -- 65
2020-07-23 05:00:00 21.7 6 Sudoeste 9 Oeste 0 1011.7 -- 67
2020-07-23 04:00:00 22.9 5 Oeste 11 Oeste 0 1012.1 -- 62
2020-07-23 03:00:00 23.1 6 Oeste 9 Oeste 0 1012.5 -- 64
2020-07-23 02:00:00 23.7 5 Oeste 17 Nordeste 0 1012.9 -- 61
2020-07-23 01:00:00 24.8 11 Nordeste 26 Este 0 1013.1 -- 75
2020-07-23 00:00:00 25.2 12 Nordeste 30 Este 0 1013 -- 75
2020-07-22 23:00:00 26.9 22 Este 39 Este 0 1012.6 -- 57
2020-07-22 22:00:00 26.8 26 Este 42 Este 0 1012.1 -- 63
2020-07-22 21:00:00 27.1 27 Este 46 Este 0 1011.4 -- 65
2020-07-22 20:00:00 28.6 33 Nordeste 45 Este 0 1011 -- 53
2020-07-22 19:00:00 29.8 30 Este 52 Este 0 1011.4 -- 47
2020-07-22 18:00:00 30.5 36 Este 54 Este 0 1011.5 -- 46
2020-07-22 17:00:00 30.8 39 Este 54 Este 0 1011.9 -- 43
2020-07-22 16:00:00 31.4 36 Este 50 Este 0 1012.5 -- 44
2020-07-22 15:00:00 31.8 35 Este 48 Este 0 1012.8 -- 41
2020-07-22 14:00:00 31 33 Este 54 Este 0 1013.1 -- 44
2020-07-22 13:00:00 30.7 34 Este 50 Este 0 1013 -- 52
2020-07-22 12:00:00 31.1 27 Este 42 Este 0 1013.7 -- 46
2020-07-22 11:00:00 30.2 17 Este 32 Este 0 1013.8 -- 48
2020-07-22 10:00:00 28 8 Oeste 22 Oeste 0 1014.3 -- 52
2020-07-22 09:00:00 27.9 4 Sudeste 11 Sur 0 1013.6 -- 54
2020-07-22 08:00:00 24.5 4 Oeste 8 Sudoeste 0 1012.8 -- 57
2020-07-22 07:00:00 22.1 5 Oeste -- -- 0 1012.5 -- 61
2020-07-22 06:00:00 22.8 6 Oeste 11 Sudoeste 0 1012.4 -- 60
2020-07-22 05:00:00 24 4 Norte 11 Norte 0 1012.2 -- 59
2020-07-22 04:00:00 24.7 8 Nordeste 17 Norte 0 1012.2 -- 62
2020-07-22 03:00:00 24.4 9 Noroeste 11 Noroeste 0 1013.4 -- 74
2020-07-22 02:00:00 24.2 12 Oeste 17 Oeste 0 1014.5 -- 79
2020-07-22 01:00:00 25 6 Nordeste 37 Este 0 1014.3 -- 82
2020-07-22 00:00:00 25.9 29 Este 39 Este 0 1013.2 -- 75
2020-07-21 23:00:00 25.6 17 Nordeste 30 Nordeste 0 1013.2 -- 79
2020-07-21 22:00:00 26 17 Nordeste 35 Este 0 1013 -- 75
2020-07-21 21:00:00 26.6 24 Este 42 Este 0 1012.8 -- 70
2020-07-21 20:00:00 27.5 31 Este 42 Este 0 1012.3 -- 67
2020-07-21 19:00:00 29.1 26 Este 39 Este 0 1012.7 -- 52
2020-07-21 18:00:00 28.9 22 Nordeste 33 Este 0 1013 -- 56
2020-07-21 17:00:00 29.3 28 Este 42 Este 0 1013.8 -- 57
2020-07-21 16:00:00 29.5 29 Este 41 Este 0 1014.4 -- 55
2020-07-21 15:00:00 29.3 25 Este 37 Este 0 1014.5 -- 62
2020-07-21 14:00:00 28.6 25 Este 39 Nordeste 0 1014.9 -- 69
2020-07-21 13:00:00 28.4 28 Este 42 Este 0 1014.9 -- 71
2020-07-21 12:00:00 28.4 25 Este 39 Este 0 1015 -- 69
2020-07-21 11:00:00 28.2 14 Este 28 Este 0 1014.5 -- 56
2020-07-21 10:00:00 28.5 10 Este 21 Este 0 1013.8 -- 44
2020-07-21 09:00:00 25.8 7 Oeste 13 Oeste 0 1013.7 -- 57
2020-07-21 08:00:00 22.1 5 Oeste 11 Norte 0 1013.3 -- 75
2020-07-21 07:00:00 20.9 10 Noroeste 13 Norte 0 1013.3 -- 80
2020-07-21 06:00:00 20.9 8 Oeste 13 Norte 0 1013.4 -- 85
2020-07-21 05:00:00 22 10 Norte 13 Norte 0 1012.9 -- 85
2020-07-21 04:00:00 22.2 7 Norte 11 Norte 0 1013.5 -- 87
2020-07-21 03:00:00 22.7 7 Norte 22 Este 0 1013.8 -- 86
2020-07-21 02:00:00 24 16 Nordeste 26 Este 0 1013.9 -- 84
2020-07-21 01:00:00 23.7 13 Nordeste 22 Este 0 1014.1 -- 85
2020-07-21 00:00:00 24.2 12 Nordeste 22 Nordeste 0 1014 -- 84
2020-07-20 23:00:00 24.7 17 Nordeste 24 Este 0 1013.6 -- 79
2020-07-20 22:00:00 24.9 17 Este 26 Este 0 1013.2 -- 80
2020-07-20 21:00:00 25.2 21 Este 30 Este 0 1012.7 -- 81
2020-07-20 20:00:00 26.6 21 Este 28 Este 0 1012.5 -- 74
2020-07-20 19:00:00 27.5 16 Este 28 Este 0 1012.2 -- 65
2020-07-20 18:00:00 28.3 19 Nordeste 28 Este 0 1012.1 -- 61
2020-07-20 17:00:00 28.4 17 Este 30 Este 0 1012.3 -- 62
2020-07-20 16:00:00 28.9 17 Este 30 Este 0 1012.8 -- 58
2020-07-20 15:00:00 29 17 Este 26 Este 0 1013 -- 57
2020-07-20 14:00:00 28.7 18 Este 26 Este 0 1013.3 -- 57
2020-07-20 13:00:00 28.5 18 Este 30 Este 0 1013.4 -- 62
2020-07-20 12:00:00 27.7 15 Este 26 Este 0 1013.2 -- 67
2020-07-20 11:00:00 27.5 14 Este 22 Este 0 1012.9 -- 67
2020-07-20 10:00:00 25.8 6 Nordeste 13 Nordeste 0 1012.6 -- 70
2020-07-20 09:00:00 24.6 5 Norte 9 Norte 0 1012.4 -- 70
2020-07-20 08:00:00 23.9 3 Sur 8 Sudeste 0 1012.1 -- 76
2020-07-20 07:00:00 23.1 5 Oeste 11 Noroeste 0 1011.9 -- 80
2020-07-20 06:00:00 23.2 4 Noroeste 9 Noroeste 0 1011.5 -- 82
2020-07-20 05:00:00 23.1 5 Noroeste 13 Noroeste 0 1011.7 -- 82
2020-07-20 04:00:00 23.6 9 Noroeste 11 Noroeste 0 1011.9 -- 81
2020-07-20 03:00:00 23.8 8 Norte 11 Norte 0 1011.7 -- 81
2020-07-20 02:00:00 23.7 6 Norte 11 Norte 0 1011.7 -- 83
2020-07-20 01:00:00 22.8 5 Este 8 Este 0 1011.8 -- 85
2020-07-20 00:00:00 23.7 4 Sudoeste 8 Sur 0 1012.1 -- 82
2020-07-19 23:00:00 23.8 6 Sur 9 Sudeste 0 1012.3 -- 82
2020-07-19 22:00:00 24.7 7 Sudoeste 15 Oeste 0 1012.5 -- 79
2020-07-19 21:00:00 25.7 5 Sudeste 15 Sur 0 1011.9 -- 73
2020-07-19 20:00:00 27.3 9 Sur 26 Sudeste 0 1011.4 -- 65
2020-07-19 19:00:00 28 15 Sudeste 26 Sudeste 0 1011.5 -- 63
2020-07-19 18:00:00 28.7 16 Sudeste 28 Sudeste 0 1011.6 -- 61
2020-07-19 17:00:00 30.1 18 Este 32 Este 0 1011.8 -- 48
2020-07-19 16:00:00 31 14 Sur 30 Sur 0 1012 -- 42
2020-07-19 15:00:00 30.6 14 Sur 28 Sur 0 1012.3 -- 40
2020-07-19 14:00:00 31 13 Sur 28 Sur 0 1012.6 -- 35
2020-07-19 13:00:00 30.1 10 Sur 24 Este 0 1012.9 -- 39
2020-07-19 12:00:00 29.2 16 Este 24 Este 0 1013.2 0.5 52
2020-07-19 11:00:00 28.3 6 Sudeste 17 Sur 0 1013.2 0.9 49
2020-07-19 10:00:00 26.8 6 Sudoeste 11 Sudoeste 0 1012.9 0.7 51
2020-07-19 09:00:00 24.8 3 Noroeste 9 Noroeste 0 1012.7 0.6 70
2020-07-19 08:00:00 22.1 5 Noroeste 9 Noroeste 0 1012.3 -- 82
2020-07-19 07:00:00 20.4 6 Oeste 9 Noroeste 0 1012.2 -- 90
2020-07-19 06:00:00 20.9 6 Noroeste -- -- 0 1012.1 -- 90
2020-07-19 05:00:00 20.9 -- -- -- -- 0 1012 -- 89
2020-07-19 04:00:00 21.2 -- -- -- -- 0 1012.3 -- 87
2020-07-19 03:00:00 21.5 5 Oeste 5 Oeste 0 1012.5 -- 86
2020-07-19 02:00:00 22 7 Oeste -- -- 0 1012.9 -- 84
2020-07-19 01:00:00 22.6 5 Oeste 5 Oeste 0 1013 -- 82
2020-07-19 00:00:00 23 0 Calma 4 Este 0 1012.8 -- 82
2020-07-18 23:00:00 23.5 2 Sudeste 8 Sur 0 1012.8 -- 79
2020-07-18 22:00:00 24.2 5 Sur 13 Sur 0 1012.1 -- 76
2020-07-18 21:00:00 25.2 8 Sur 21 Este 0 1011.7 -- 72
2020-07-18 20:00:00 26.3 13 Sudeste 22 Este 0 1011.3 -- 65
2020-07-18 19:00:00 26.9 12 Este 24 Este 0 1011.1 -- 64
2020-07-18 18:00:00 27.6 17 Este 28 Sudeste 0 1011.3 -- 62
2020-07-18 17:00:00 28.7 18 Este 30 Sudeste 0 1011.7 -- 59
2020-07-18 16:00:00 28.2 18 Sudeste 30 Sudeste 0 1012 -- 56
2020-07-18 15:00:00 28.9 18 Este 35 Sudeste 0 1012.4 -- 53
2020-07-18 14:00:00 29.1 17 Sudeste 30 Este 0 1012.8 -- 51
2020-07-18 13:00:00 28.4 17 Este 26 Este 0 1013.2 -- 55
2020-07-18 12:00:00 27.2 16 Este 24 Este 0 1013.2 -- 65
2020-07-18 11:00:00 26.1 16 Este 26 Este 0 1013.1 -- 72
2020-07-18 10:00:00 25.1 9 Nordeste 21 Nordeste 0 1013.1 -- 73
2020-07-18 09:00:00 24.5 11 Norte 18 Norte 0 1012.9 -- 77
2020-07-18 08:00:00 23.2 11 Norte 15 Norte 0 1012.7 -- 79
2020-07-18 07:00:00 22.6 10 Norte 15 Norte 0 1012.3 -- 79
2020-07-18 06:00:00 22.4 8 Norte 11 Norte 0 1012.1 -- 86
2020-07-18 05:00:00 22.2 5 Norte 8 Nordeste 0 1012.2 -- 87
2020-07-18 04:00:00 22.7 6 Noroeste 8 Noroeste 0 1012.2 -- 85
2020-07-18 03:00:00 23.3 4 Oeste 9 Sudeste 0 1012.6 -- 84
2020-07-18 02:00:00 23.7 4 Este 11 Este 0 1012.9 -- 82
2020-07-18 01:00:00 23.7 8 Este 13 Norte 0 1012.9 -- 83
2020-07-18 00:00:00 23.7 9 Este 15 Este 0 1012.8 -- 80
2020-07-17 23:00:00 23.8 9 Este 13 Este 0 1012.4 -- 80
2020-07-17 22:00:00 24.2 9 Este 15 Este 0 1011.9 -- 79
2020-07-17 21:00:00 24.7 11 Este 18 Sudeste 0 1011.5 -- 76
2020-07-17 20:00:00 25.3 13 Este 22 Norte 0 1011.3 -- 73
2020-07-17 19:00:00 25.9 15 Sudeste 28 Sudeste 0 1011.2 -- 70
2020-07-17 18:00:00 27 16 Sudeste 32 Sudeste 0 1011.5 -- 65
2020-07-17 17:00:00 27.1 17 Este 32 Sudeste 0 1011.9 -- 60
2020-07-17 16:00:00 28.3 18 Sudeste 30 Sudeste 0 1012.4 -- 54
2020-07-17 15:00:00 28 16 Este 28 Este 0 1012.8 -- 57
2020-07-17 14:00:00 27.7 17 Este 28 Este 0 1013 -- 58
2020-07-17 13:00:00 28 16 Este 28 Este 0 1013.3 -- 57
2020-07-17 12:00:00 27.1 14 Este 24 Este 0 1013.5 -- 64
2020-07-17 11:00:00 26.6 12 Este 21 Este 0 1013.6 -- 65
2020-07-17 10:00:00 25.7 13 Este 17 Este 0 1013.8 -- 71
2020-07-17 09:00:00 25.1 5 Nordeste 13 Norte 0 1013.6 -- 69
2020-07-17 08:00:00 23.1 5 Nordeste -- -- 0 1013.3 -- 78
2020-07-17 07:00:00 21.1 7 Oeste 9 Noroeste 0 1013 -- 86
2020-07-17 06:00:00 21.1 5 Noroeste 8 Noroeste 0 1012.7 -- 87
2020-07-17 05:00:00 22.5 7 Norte -- -- 0 1012.7 -- 81
2020-07-17 04:00:00 21.7 5 Noroeste -- -- 0 1012.8 -- 87
2020-07-17 03:00:00 23 6 Norte 9 Norte 0 1013.1 -- 84
2020-07-17 02:00:00 22.7 7 Oeste -- -- 0 1013.9 -- 85
2020-07-17 01:00:00 -- -- -- -- -- -- -- -- --
2020-07-17 00:00:00 23.6 6 Sudeste 13 Este 0 1014.2 -- 83
2020-07-16 23:00:00 24 9 Este 13 Este 0 1014.1 -- 80
2020-07-16 22:00:00 24.2 12 Este 21 Norte 0 1013.5 -- 79
2020-07-16 21:00:00 24.8 14 Este 24 Este 0 1013.4 -- 76
2020-07-16 20:00:00 25.8 14 Este 26 Este 0 1013.3 -- 70
2020-07-16 19:00:00 26.9 17 Este 30 Este 0 1013.3 -- 65
2020-07-16 18:00:00 27.4 20 Este 32 Este 0 1013.6 -- 59
2020-07-16 17:00:00 27.4 20 Este 33 Este 0 1013.9 -- 59
2020-07-16 16:00:00 28.2 19 Este 32 Este 0 1014.5 -- 56
2020-07-16 15:00:00 27.8 19 Este 32 Este 0 1015 -- 57
2020-07-16 14:00:00 28.2 19 Este 32 Este 0 1015.2 -- 56
2020-07-16 13:00:00 27.8 21 Este 35 Este 0 1015.7 -- 60
2020-07-16 12:00:00 27.6 18 Este 30 Este 0 1015.9 -- 58
2020-07-16 11:00:00 27.1 18 Este 28 Este 0 1015.5 -- 66
2020-07-16 10:00:00 26.5 15 Nordeste 22 Este 0 1015.3 -- 63
2020-07-16 09:00:00 25.7 8 Nordeste 15 Nordeste 0 1015.1 -- 53
2020-07-16 08:00:00 23 2 Norte 9 Noroeste 0 1014.5 -- 58
2020-07-16 07:00:00 20.5 5 Noroeste 11 Noroeste 0 1014.1 -- 68
2020-07-16 06:00:00 20.6 9 Noroeste -- -- 0 1013.9 -- 73
2020-07-16 05:00:00 21.2 8 Noroeste 11 Noroeste 0 1013.9 -- 77
2020-07-16 04:00:00 22.1 8 Noroeste -- -- 0 1014 -- 74
2020-07-16 03:00:00 22.6 6 Noroeste 11 Norte 0 1014.4 -- 77
2020-07-16 02:00:00 22.5 7 Norte 11 Norte 0 1014.6 -- 79
2020-07-16 01:00:00 23.2 6 Nordeste 13 Nordeste 0 1014.6 -- 79
2020-07-16 00:00:00 23.3 7 Nordeste 13 Nordeste 0 1014.3 -- 77
2020-07-15 23:00:00 24 9 Este 15 Este 0 1014 -- 76
2020-07-15 22:00:00 24.4 11 Este 21 Este 0 1013.3 -- 76
2020-07-15 21:00:00 25.1 13 Este 26 Este 0 1012.8 -- 71
2020-07-15 20:00:00 26.1 15 Este 24 Este 0 1012.6 -- 67
2020-07-15 19:00:00 26.8 18 Nordeste 28 Este 0 1012.7 -- 61
2020-07-15 18:00:00 28 16 Este 33 Este 0 1013 -- 54
2020-07-15 17:00:00 28.1 17 Este 33 Este 0 1013.2 -- 56
2020-07-15 16:00:00 27.4 18 Este 30 Este 0 1013.4 -- 57
2020-07-15 15:00:00 28.3 18 Este 33 Este 0 1013.4 -- 55
2020-07-15 14:00:00 28.3 21 Este 33 Este 0 1013.7 -- 59
2020-07-15 13:00:00 27.8 20 Este 33 Nordeste 0 1014.1 -- 60
2020-07-15 12:00:00 27.4 20 Este 35 Este 0 1014.2 -- 64
2020-07-15 11:00:00 26.4 20 Este 32 Este 0 1013.8 -- 69
2020-07-15 10:00:00 25.7 19 Este 28 Norte 0 1013.5 -- 71
2020-07-15 09:00:00 25.6 8 Nordeste 18 Norte 0 1013.1 -- 66
2020-07-15 08:00:00 22.2 8 Noroeste 11 Noroeste 0 1012.4 -- 71
2020-07-15 07:00:00 21.4 6 Norte 11 Norte 0 1011.8 -- 74
2020-07-15 06:00:00 21.7 7 Nordeste 9 Nordeste 0 1011.6 -- 75
2020-07-15 05:00:00 22 8 Norte 9 Norte 0 1011.5 -- 78
2020-07-15 04:00:00 22.1 8 Norte 15 Norte 0 1011.5 -- 81
2020-07-15 03:00:00 23.1 11 Norte 18 Este 0 1011.6 -- 79
2020-07-15 02:00:00 23.4 9 Nordeste 15 Nordeste 0 1011.9 -- 79
2020-07-15 01:00:00 23.9 6 Este 13 Norte 0 1012.1 -- 76
2020-07-15 00:00:00 23.7 8 Este 15 Este 0 1011.9 -- 78
2020-07-14 23:00:00 24.4 12 Nordeste 26 Este 0 1011.5 -- 76
2020-07-14 22:00:00 24.6 16 Este 33 Nordeste 0 1011 -- 79
2020-07-14 21:00:00 25.1 21 Este 30 Nordeste 0 1011.2 -- 77
2020-07-14 20:00:00 25.2 15 Este 22 Este 0 1011 -- 80
2020-07-14 19:00:00 25.8 9 Este 21 Este 0 1010.7 -- 76
2020-07-14 18:00:00 26.8 14 Este 28 Este 0 1010.5 -- 70
2020-07-14 17:00:00 27.6 17 Este 30 Este 0 1010.8 -- 67
2020-07-14 16:00:00 27.6 21 Este 30 Este 0 1011.3 -- 65
2020-07-14 15:00:00 27.7 21 Este 28 Este 0 1011.5 -- 58
2020-07-14 14:00:00 27.1 12 Este 24 Este 0 1012.9 -- 58
2020-07-14 13:00:00 27.7 15 Sudeste 26 Sudeste 0 1013.4 -- 55
2020-07-14 12:00:00 28.8 15 Este 26 Este 0 1012.7 -- 55
2020-07-14 11:00:00 28.5 10 Este 21 Sudeste 0 1012.8 -- 50
2020-07-14 10:00:00 27.9 6 Este 13 Este 0 1012.8 -- 50
2020-07-14 09:00:00 25.7 2 Este 13 Noroeste 0 1012.6 -- 62
2020-07-14 08:00:00 23.3 11 Oeste 15 Oeste 0 1012.5 -- 71
2020-07-14 07:00:00 22 11 Oeste 13 Oeste 0 1012.6 -- 78
2020-07-14 06:00:00 21.9 8 Oeste 13 Oeste 0 1012.5 -- 82
2020-07-14 05:00:00 21.7 11 Oeste 13 Oeste 0 1012.7 -- 83
2020-07-14 04:00:00 22.1 11 Oeste 13 Oeste 0 1013 -- 82
2020-07-14 03:00:00 22.9 6 Oeste 9 Noroeste 0 1013.4 -- 76
2020-07-14 02:00:00 23.8 6 Este 17 Nordeste 0 1014 -- 75
2020-07-14 01:00:00 24.5 12 Este 18 Nordeste 0 1014 -- 75
2020-07-14 00:00:00 24.8 14 Este 24 Este 0 1014.1 -- 76
2020-07-13 23:00:00 25 13 Este 22 Este 0 1013.8 -- 78
2020-07-13 22:00:00 25.2 15 Este 26 Este 0 1013 0.6 75
2020-07-13 21:00:00 26 17 Este 32 Este 0 1012.7 0.2 68
2020-07-13 20:00:00 26.8 21 Este 32 Este 0 1012.6 -0.3 70
2020-07-13 19:00:00 28.1 22 Nordeste 35 Este 0 1012.4 -1 63
2020-07-13 18:00:00 28.8 24 Este 35 Norte 0 1012.5 -1.2 62
2020-07-13 17:00:00 29.8 24 Este 37 Este 0 1012.9 -1.1 55
2020-07-13 16:00:00 30.5 24 Este 39 Este 0 1013.4 -0.9 51
2020-07-13 15:00:00 30.8 26 Este 41 Este 0 1013.7 -0.8 50
2020-07-13 14:00:00 30.6 29 Este 39 Este 0 1014 -0.3 55
2020-07-13 13:00:00 30.1 26 Este 37 Este 0 1014.3 -0.1 56
2020-07-13 12:00:00 29.4 20 Este 30 Este 0 1014.5 0.5 56
2020-07-13 11:00:00 29.9 9 Nordeste 17 Este 0 1014.3 0.8 48
2020-07-13 10:00:00 27.8 7 Este 15 Sudeste 0 1014.4 1.2 60
2020-07-13 09:00:00 27.2 4 Nordeste 9 Nordeste 0 1014 1.3 52
2020-07-13 08:00:00 24 3 Este 15 Norte 0 1013.5 0.8 63
2020-07-13 07:00:00 22.1 10 Noroeste 15 Noroeste 0 1013.2 -- 73
2020-07-13 06:00:00 21.9 11 Oeste 15 Noroeste 0 1012.7 -1.1 74
2020-07-13 05:00:00 22.4 9 Noroeste 13 Noroeste 0 1012.7 -1.4 68
2020-07-13 04:00:00 22.4 9 Noroeste 13 Oeste 0 1013.4 -1.5 71
2020-07-13 03:00:00 25.1 5 Norte 21 Norte 0 1013.8 0.2 60
2020-07-13 02:00:00 24.9 12 Norte 21 Norte 0 1014.1 -0.1 70
2020-07-13 01:00:00 25.1 14 Norte 32 Este 0 1014.9 2 78
2020-07-13 00:00:00 25.4 25 Este 39 Norte 0 1013.6 -1.3 75
2020-07-12 23:00:00 25.8 25 Este 54 Este 0 1014.2 0.2 69
2020-07-12 22:00:00 25.6 34 Nordeste 52 Nordeste 0 1012.9 -1.4 66
2020-07-12 21:00:00 26 19 Este 46 Este 0 1014.9 1 71
2020-07-12 20:00:00 27 29 Este 41 Este 0 1014 -0.6 67
2020-07-12 19:00:00 27.3 27 Nordeste 45 Este 0 1014.3 0.1 65
2020-07-12 18:00:00 27.1 31 Este 42 Este 0 1013.9 -0.4 68
2020-07-12 17:00:00 28.8 24 Nordeste 39 Este 0 1014.6 -0.5 59
2020-07-12 16:00:00 28.9 24 Este 35 Este 0 1014.2 -0.1 62
2020-07-12 15:00:00 28.9 20 Este 32 Este 0 1014.3 -- 61
2020-07-12 14:00:00 28.8 19 Este 35 Este 0 1015.1 1.2 57
2020-07-12 13:00:00 29.2 26 Este 39 Este 0 1014.3 -- 59
2020-07-12 12:00:00 28.8 23 Este 39 Nordeste 0 1014.1 -- 60
2020-07-12 11:00:00 28 22 Este 35 Este 0 1013.9 -- 64
2020-07-12 10:00:00 26.3 17 Este 30 Este 0 1013.5 -2.1 68
2020-07-12 09:00:00 24.8 21 Nordeste 33 Nordeste 0 1012.6 -- 75
2020-07-12 08:00:00 24.2 10 Norte 18 Norte 0 1015.2 -- 79
2020-07-12 07:00:00 23.2 10 Oeste 15 Oeste 0 1015.6 -- 87
2020-07-12 06:00:00 23.6 5 Noroeste 13 Noroeste 0 1014.1 -- 86
2020-07-12 05:00:00 23.1 8 Noroeste 11 Oeste 0 1013.9 -- 86
2020-07-12 04:00:00 23.2 6 Noroeste 21 Este 0 1014 -- 86
2020-07-12 03:00:00 24.4 16 Este 30 Este 0 1013.1 -- 85
2020-07-12 02:00:00 24.5 19 Este 28 Este 0 1013.3 -- 85
2020-07-12 01:00:00 24.6 16 Este 28 Este 0 1013.7 -- 86
2020-07-12 00:00:00 24.7 22 Este 33 Nordeste 0 1013.5 -- 86
2020-07-11 23:00:00 25 21 Este 30 Este 0 1013.4 -- 87
2020-07-11 22:00:00 25.1 20 Este 30 Nordeste 0 1012.9 -- 88
2020-07-11 21:00:00 26.2 18 Nordeste 30 Este 0 1012.7 -- 83
2020-07-11 20:00:00 28.3 22 Este 35 Este 0 1012.5 -- 61
2020-07-11 19:00:00 29.1 25 Este 41 Este 0 1012.6 -0.1 53
2020-07-11 18:00:00 29.5 31 Este 46 Este 0 1012.8 -- 55
2020-07-11 17:00:00 30.5 35 Nordeste 50 Este 0 1012.8 -- 50
2020-07-11 16:00:00 31.1 36 Nordeste 46 Este 0 1012.7 -- 51
2020-07-11 15:00:00 31.5 32 Este 45 Este 0 1012.8 -- 46
2020-07-11 14:00:00 31.6 27 Nordeste 41 Este 0 1012.9 -- 44
2020-07-11 13:00:00 30.5 22 Este 33 Este 0 1013.1 -- 56
2020-07-11 12:00:00 29.6 15 Este 26 Este 0 1013.1 -- 54
2020-07-11 11:00:00 28.9 14 Este 22 Este 0 1012.9 -- 53
2020-07-11 10:00:00 27.9 9 Este 15 Este 0 1012.4 -- 53
2020-07-11 09:00:00 26.4 4 Sudoeste 9 Noroeste 0 1011.8 -- 55
2020-07-11 08:00:00 23.5 7 Sudoeste 18 Oeste 0 1011.2 -- 68
2020-07-11 07:00:00 22 13 Sudoeste 22 Oeste 0 1010.6 -- 75
2020-07-11 06:00:00 21.2 12 Oeste 15 Oeste 0 1010.1 -- 83
2020-07-11 05:00:00 22 9 Oeste 15 Oeste 0 1010 -- 80
2020-07-11 04:00:00 21.6 9 Oeste 15 Oeste 0 1010.2 -- 87
2020-07-11 03:00:00 21.9 10 Oeste -- -- 0 1010.5 -- 90
2020-07-11 02:00:00 22.8 10 Oeste 13 Oeste 0 1010.7 -0.4 90
2020-07-11 01:00:00 24.2 8 Oeste 11 Oeste 0 1011 -- 90
2020-07-11 00:00:00 24.2 8 Este 17 Este 0 1011.1 -- 92
2020-07-10 23:00:00 24.5 9 Nordeste 15 Nordeste 0 1011.1 -- 88
2020-07-10 22:00:00 24.9 9 Este 21 Este 0 1010.4 -- 85
2020-07-10 21:00:00 25.7 15 Este 24 Este 0 1010 -- 78
2020-07-10 20:00:00 26.8 17 Este 28 Este 0 1009.7 -- 72
2020-07-10 19:00:00 28.1 22 Este 33 Este 0 1009.5 -- 63
2020-07-10 18:00:00 28.9 26 Este 41 Este 0 1009.5 -- 60
2020-07-10 17:00:00 29.5 25 Este 37 Este 0 1009.8 -- 58
2020-07-10 16:00:00 29.3 26 Este 37 Este 0 1010.2 -- 59
2020-07-10 15:00:00 29.5 23 Este 35 Este 0 1010.6 -- 59
2020-07-10 14:00:00 29.7 18 Este 30 Este 0 1010.7 -- 59
2020-07-10 13:00:00 30 21 Este 30 Este 0 1011 -- 50
2020-07-10 12:00:00 31.2 18 Este 28 Sudeste 0 1010.9 -- 40
2020-07-10 11:00:00 29.2 4 Oeste 13 Sur 0 -- -- 45
2020-07-10 10:00:00 27.2 4 Sur 11 Norte 0 1010.7 -- 52
2020-07-10 09:00:00 24.6 5 Oeste 9 Oeste 0 1010.3 -- 62
2020-07-10 08:00:00 21.8 5 Sudoeste 13 Oeste 0 1010.2 -- 75
2020-07-10 07:00:00 20 5 Sudeste 13 Sudoeste 0 1009.9 -- 80
2020-07-10 06:00:00 22 8 Sudoeste 18 Oeste 0 1009.7 -- 71
2020-07-10 05:00:00 20.4 14 Oeste 17 Oeste 0 1010 -- 73
2020-07-10 04:00:00 21.1 8 Oeste 15 Oeste 0 1010.3 -- 70
2020-07-10 03:00:00 21.3 9 Oeste 13 Oeste 0 1010.7 -- 73
2020-07-10 02:00:00 23.4 6 Oeste 13 Norte 0 1010.5 -- 68
2020-07-10 01:00:00 24.2 8 Norte 17 Nordeste 0 1011.3 -- 68
2020-07-10 00:00:00 24.9 8 Nordeste 18 Este 0 1011.7 -- 69
2020-07-09 23:00:00 25.3 14 Este 21 Este 0 1011.4 -- 62
2020-07-09 22:00:00 25.6 10 Nordeste 21 Este 0 1011.2 -- 65
2020-07-09 21:00:00 26.8 17 Este 32 Este 0 1010.6 -- 66
2020-07-09 20:00:00 27.8 24 Este 37 Este 0 1010.3 -- 61
2020-07-09 19:00:00 26.7 23 Nordeste 39 Nordeste 0 1009.8 -- 71
2020-07-09 18:00:00 28.4 28 Este 48 Este 0 1010.2 -- 62
2020-07-09 17:00:00 27.6 24 Nordeste 41 Este 0 1011 -- 67
2020-07-09 16:00:00 29.4 18 Este 45 Este 0 1011.8 -- 56
2020-07-09 15:00:00 28.6 29 Este 46 Este 0 1011.9 -- 63
2020-07-09 14:00:00 30.1 26 Este 45 Este 0 1012.8 -- 52
2020-07-09 13:00:00 31.2 27 Este 37 Este 0 1011.9 -- 51
2020-07-09 12:00:00 29.9 19 Este 35 Este 0 1012.1 -- 55
2020-07-09 11:00:00 29.7 20 Nordeste 32 Este 0 1012.2 -- 47
2020-07-09 10:00:00 27.9 18 Nordeste 28 Nordeste 0 1012 -- 63
2020-07-09 09:00:00 26.8 15 Nordeste 22 Nordeste 0 1012.1 -- 66
2020-07-09 08:00:00 24.5 8 Norte 18 Sudoeste 0 1011.3 -- 57
2020-07-09 07:00:00 23.6 12 Sur 37 Norte 0 1010.3 -- 61
2020-07-09 06:00:00 25 23 Nordeste 41 Nordeste 0 1009.5 -- 59
2020-07-09 05:00:00 24.8 22 Este 32 Nordeste 0 1011.2 -- 66
2020-07-09 04:00:00 25.6 17 Nordeste 26 Nordeste 0 1011.7 -- 58
2020-07-09 03:00:00 25.2 5 Sudoeste 35 Este 0 1012.4 -- 65
2020-07-09 02:00:00 25.3 22 Nordeste 37 Nordeste 0 1010.6 -- 69
2020-07-09 01:00:00 25.4 6 Oeste 33 Oeste 0 1014.3 -- 76
2020-07-09 00:00:00 25 13 Nordeste 35 Nordeste 0 1012.8 -- 81
2020-07-08 23:00:00 25 22 Nordeste 39 Este 0 1012.6 -- 84
2020-07-08 22:00:00 25 22 Este 35 Este 0 1012.2 -- 86
2020-07-08 21:00:00 25.2 17 Este 32 Este 0 1012.2 -- 85
2020-07-08 20:00:00 25.9 22 Este 32 Este 0 1011.4 -- 81
2020-07-08 19:00:00 27.6 17 Este 24 Este 0 1011.8 -- 65
2020-07-08 18:00:00 27.2 14 Este 28 Nordeste 0 1013 -- 65
2020-07-08 17:00:00 28.6 19 Este 32 Este 0 1012.9 -- 58
2020-07-08 16:00:00 28.7 22 Este 33 Este 0 1012.8 -- 60
2020-07-08 15:00:00 28.9 24 Este 33 Este 0 1012.8 -- 56
2020-07-08 14:00:00 28.2 16 Este 30 Este 0 1014.1 -- 58
2020-07-08 13:00:00 29.3 22 Este 33 Este 0 1013.7 -- 51
2020-07-08 12:00:00 29.2 21 Este 30 Este 0 1013.5 -- 52
2020-07-08 11:00:00 28.7 19 Este 30 Este 0 1013.4 -- 50
2020-07-08 10:00:00 27.8 12 Este 18 Este 0 1013.5 -- 56
2020-07-08 09:00:00 25.7 11 Norte 18 Norte 0 1013 -- 73
2020-07-08 08:00:00 23.9 12 Norte 17 Nordeste 0 1012.3 -- 81
2020-07-08 07:00:00 23 11 Norte 15 Norte 0 1012.1 -- 86
2020-07-08 06:00:00 23.1 8 Norte 13 Norte 0 1011.8 -- 89
2020-07-08 05:00:00 23.5 10 Norte 15 Norte 0 1012 -- 88
2020-07-08 04:00:00 23.9 9 Norte 11 Norte 0 1011.9 -- 87
2020-07-08 03:00:00 23.7 6 Norte 11 Nordeste 0 1012.1 -- 90
2020-07-08 02:00:00 23.5 6 Nordeste 15 Este 0 1012.4 -- 89
2020-07-08 01:00:00 24 11 Este 15 Este 0 1012.4 -- 89
2020-07-08 00:00:00 24.5 10 Nordeste 17 Este 0 1012.3 -- 87
2020-07-07 23:00:00 24.7 10 Este 15 Este 0 1011.8 -- 84
2020-07-07 22:00:00 25.5 9 Este 15 Este 0 1011.2 -- 77
2020-07-07 21:00:00 27.1 10 Este 17 Este 0 1010.7 -- 60
2020-07-07 20:00:00 29 11 Este 17 Este 0 1010.6 -0.5 50
2020-07-07 19:00:00 29.8 12 Este 22 Este 0 1010.5 -0.8 44
2020-07-07 18:00:00 30.4 14 Este 30 Este 0 1010.8 -0.7 44
2020-07-07 17:00:00 30.9 19 Este 28 Este 0 1011.1 -0.6 50
2020-07-07 16:00:00 31.1 18 Este 30 Sudeste 0 1011.3 -0.5 47
2020-07-07 15:00:00 30.9 18 Sudeste 33 Sudeste 0 1011.5 -0.3 46
2020-07-07 14:00:00 33.1 17 Sudeste 28 Sudeste 0 1011.7 -0.2 30
2020-07-07 13:00:00 32.7 11 Sur 22 Sur 0 1011.8 -0.1 29
2020-07-07 12:00:00 32 10 Sur 18 Sudeste 0 1011.8 -0.1 27
2020-07-07 11:00:00 30.8 8 Sur 15 Sudoeste 0 1011.9 0.3 25
2020-07-07 10:00:00 28.9 6 Sudoeste 13 Sudoeste 0 1011.9 0.5 28
2020-07-07 09:00:00 26.3 5 Sudoeste 9 Sudoeste 0 1011.9 0.5 40
2020-07-07 08:00:00 23 0 Calma 8 Oeste 0 1011.6 0.2 45
2020-07-07 07:00:00 20.8 4 Oeste -- -- 0 1011.4 -- 52
2020-07-07 06:00:00 20.6 4 Noroeste 9 Oeste 0 1011.4 -- 56
2020-07-07 05:00:00 20.2 9 Oeste -- -- 0 1011.4 -- 65
2020-07-07 04:00:00 20.4 9 Oeste 9 Oeste 0 1011.6 -- 72
2020-07-07 03:00:00 21.1 8 Oeste 9 Oeste 0 1012 -- 71
2020-07-07 02:00:00 21.6 -- -- -- -- 0 1012.3 -- 78
2020-07-07 01:00:00 22.7 0 Calma 5 Oeste 0 1012.6 -- 75
2020-07-07 00:00:00 23.5 5 Oeste 8 Oeste 0 1012.7 -- 72